createdAt,value
2019-05-26T00:00:41.660Z,101565.95
2019-05-26T00:03:08.663Z,101560.46
2019-05-26T00:05:35.678Z,101560.09
2019-05-26T00:08:02.799Z,101551.84
2019-05-26T00:10:29.817Z,101546.59
2019-05-26T00:12:56.777Z,101548.99
2019-05-26T00:15:23.718Z,101547.39
2019-05-26T00:17:50.967Z,101544.82
2019-05-26T00:20:17.980Z,101537.53
2019-05-26T00:22:46.030Z,101538.84
2019-05-26T00:25:13.301Z,101541.11
2019-05-26T00:27:40.274Z,101537.64
2019-05-26T00:30:07.957Z,101536.74
2019-05-26T00:32:35.087Z,101535.18
2019-05-26T00:35:02.049Z,101543.06
2019-05-26T00:37:28.994Z,101543.29
2019-05-26T00:39:55.997Z,101537.16
2019-05-26T00:42:22.957Z,101538.95
2019-05-26T00:44:49.886Z,101527.59
2019-05-26T00:47:17.006Z,101520.84
2019-05-26T00:49:44.032Z,101521.97
2019-05-26T00:52:11.196Z,101517.91
2019-05-26T00:54:38.272Z,101517.10
2019-05-26T00:57:05.423Z,101513.62
2019-05-26T00:59:32.689Z,101516.20
2019-05-26T01:01:59.788Z,101513.30
2019-05-26T01:04:27.049Z,101511.70
2019-05-26T01:06:54.000Z,101510.63
2019-05-26T01:09:21.009Z,101516.56
2019-05-26T01:11:48.117Z,101515.25
2019-05-26T01:14:15.193Z,101511.77
2019-05-26T01:16:42.193Z,101517.45
2019-05-26T01:19:09.126Z,101512.19
2019-05-26T01:21:36.085Z,101510.35
2019-05-26T01:24:03.390Z,101518.25
2019-05-26T01:26:30.375Z,101511.67
2019-05-26T01:28:57.366Z,101515.05
2019-05-26T01:31:24.338Z,101519.85
2019-05-26T01:33:51.321Z,101521.07
2019-05-26T01:36:18.598Z,101516.97
2019-05-26T01:38:45.953Z,101511.66
2019-05-26T01:41:12.940Z,101513.07
2019-05-26T01:43:39.904Z,101513.59
2019-05-26T01:46:06.870Z,101507.15
2019-05-26T01:48:33.874Z,101509.83
2019-05-26T01:51:00.826Z,101505.73
2019-05-26T01:53:27.853Z,101509.55
2019-05-26T01:55:54.868Z,101512.23
2019-05-26T01:58:21.828Z,101513.45
2019-05-26T02:00:48.776Z,101508.23
2019-05-26T02:03:15.760Z,101508.60
2019-05-26T02:05:42.713Z,101504.87
2019-05-26T02:08:12.071Z,101500.41
2019-05-26T02:10:38.551Z,101498.30
2019-05-26T02:13:05.516Z,101496.51
2019-05-26T02:15:32.513Z,101495.66
2019-05-26T02:17:59.472Z,101492.41
2019-05-26T02:20:26.472Z,101492.16
2019-05-26T02:22:53.451Z,101489.43
2019-05-26T02:25:22.305Z,101484.14
2019-05-26T02:27:49.261Z,101476.84
2019-05-26T02:30:16.865Z,101477.33
2019-05-26T02:32:45.598Z,101475.55
2019-05-26T02:35:13.093Z,101469.04
2019-05-26T02:37:40.087Z,101469.20
2019-05-26T02:40:08.919Z,101468.51
2019-05-26T02:42:35.909Z,101476.52
2019-05-26T02:45:07.171Z,101471.15
2019-05-26T02:47:34.135Z,101474.36
2019-05-26T02:50:01.091Z,101472.16
2019-05-26T02:52:28.094Z,101472.68
2019-05-26T02:54:55.140Z,101476.19
2019-05-26T02:57:22.089Z,101477.49
2019-05-26T02:59:49.164Z,101479.91
2019-05-26T03:02:16.110Z,101480.02
2019-05-26T03:04:43.191Z,101479.28
2019-05-26T03:07:11.094Z,101474.95
2019-05-26T03:09:40.048Z,101474.69
2019-05-26T03:12:07.003Z,101471.74
2019-05-26T03:14:35.308Z,101476.73
2019-05-26T03:17:02.591Z,101469.88
2019-05-26T03:19:32.670Z,101473.04
2019-05-26T03:22:01.486Z,101467.87
2019-05-26T03:24:28.428Z,101467.92
2019-05-26T03:26:55.805Z,101467.50
2019-05-26T03:29:22.907Z,101464.87
2019-05-26T03:31:49.872Z,101463.66
2019-05-26T03:34:16.828Z,101463.33
2019-05-26T03:36:43.795Z,101463.38
2019-05-26T03:39:10.778Z,101470.48
2019-05-26T03:41:37.849Z,101466.91
2019-05-26T03:44:04.807Z,101468.74
2019-05-26T03:46:32.447Z,101459.01
2019-05-26T03:48:59.422Z,101466.16
2019-05-26T03:51:26.377Z,101456.09
2019-05-26T03:53:53.417Z,101462.83
2019-05-26T03:56:20.411Z,101458.92
2019-05-26T03:58:47.369Z,101458.97
2019-05-26T04:01:14.360Z,101457.66
2019-05-26T04:03:42.523Z,101452.81
2019-05-26T04:06:09.569Z,101448.06
2019-05-26T04:08:36.849Z,101445.95
2019-05-26T04:11:03.807Z,101448.68
2019-05-26T04:13:30.764Z,101448.72
2019-05-26T04:15:57.768Z,101442.66
2019-05-26T04:18:24.731Z,101442.89
2019-05-26T04:20:51.697Z,101440.06
2019-05-26T04:23:18.677Z,101434.60
2019-05-26T04:25:45.663Z,101438.27
2019-05-26T04:28:12.617Z,101434.11
2019-05-26T04:30:39.612Z,101439.78
2019-05-26T04:33:06.587Z,101437.86
2019-05-26T04:35:33.539Z,101432.16
2019-05-26T04:38:00.534Z,101430.50
2019-05-26T04:40:28.230Z,101426.20
2019-05-26T04:42:55.359Z,101424.63
2019-05-26T04:45:22.423Z,101420.80
2019-05-26T04:47:49.393Z,101417.82
2019-05-26T04:50:16.666Z,101421.94
2019-05-26T04:53:04.104Z,101415.89
2019-05-26T04:55:12.663Z,101421.30
2019-05-26T04:57:39.650Z,101418.81
2019-05-26T05:00:07.747Z,101419.36
2019-05-26T05:02:34.893Z,101425.66
2019-05-26T05:05:01.942Z,101421.34
2019-05-26T05:07:29.903Z,101422.23
2019-05-26T05:09:56.850Z,101419.64
2019-05-26T05:12:23.835Z,101418.36
2019-05-26T05:14:52.592Z,101422.32
2019-05-26T05:17:19.606Z,101415.34
2019-05-26T05:19:46.626Z,101414.48
2019-05-26T05:22:13.570Z,101413.66
2019-05-26T05:24:40.510Z,101410.28
2019-05-26T05:27:07.498Z,101417.00
2019-05-26T05:29:34.467Z,101413.23
2019-05-26T05:32:01.493Z,101414.70
2019-05-26T05:34:28.431Z,101402.15
2019-05-26T05:36:55.385Z,101390.52
2019-05-26T05:39:22.372Z,101395.65
2019-05-26T05:41:49.308Z,101396.88
2019-05-26T05:44:16.259Z,101389.09
2019-05-26T05:46:43.232Z,101389.79
2019-05-26T05:49:10.248Z,101390.84
2019-05-26T05:51:37.356Z,101384.82
2019-05-26T05:54:07.292Z,101380.52
2019-05-26T05:56:34.272Z,101385.44
2019-05-26T05:59:03.719Z,101383.84
2019-05-26T06:01:30.714Z,101377.69
2019-05-26T06:03:57.726Z,101383.05
2019-05-26T06:06:24.681Z,101382.64
2019-05-26T06:08:51.799Z,101383.05
2019-05-26T06:11:20.581Z,101385.34
2019-05-26T06:13:47.570Z,101379.26
2019-05-26T06:16:14.772Z,101383.22
2019-05-26T06:18:41.736Z,101377.56
2019-05-26T06:21:08.686Z,101378.52
2019-05-26T06:23:36.963Z,101382.53
2019-05-26T06:26:04.539Z,101385.76
2019-05-26T06:28:31.542Z,101375.40
2019-05-26T06:30:58.525Z,101368.52
2019-05-26T06:33:25.516Z,101373.11
2019-05-26T06:35:52.623Z,101374.56
2019-05-26T06:38:19.587Z,101372.94
2019-05-26T06:40:46.576Z,101373.88
2019-05-26T06:43:13.555Z,101373.94
2019-05-26T06:45:40.529Z,101377.58
2019-05-26T06:48:07.558Z,101375.39
2019-05-26T06:50:34.557Z,101365.37
2019-05-26T06:53:01.517Z,101370.44
2019-05-26T06:55:29.654Z,101375.09
2019-05-26T06:57:56.673Z,101369.58
2019-05-26T07:00:24.925Z,101374.94
2019-05-26T07:02:51.953Z,101378.61
2019-05-26T07:05:19.012Z,101381.81
2019-05-26T07:07:47.782Z,101379.02
2019-05-26T07:10:15.077Z,101380.77
2019-05-26T07:12:42.075Z,101380.22
2019-05-26T07:15:09.660Z,101376.46
2019-05-26T07:17:39.706Z,101375.77
2019-05-26T07:20:07.143Z,101371.38
2019-05-26T07:22:35.928Z,101366.23
2019-05-26T07:25:03.510Z,101361.84
2019-05-26T07:27:30.477Z,101355.30
2019-05-26T07:29:57.455Z,101356.70
2019-05-26T07:32:24.469Z,101353.99
2019-05-26T07:34:51.830Z,101359.30
2019-05-26T07:37:18.790Z,101366.38
2019-05-26T07:39:45.737Z,101357.53
2019-05-26T07:42:12.727Z,101354.41
2019-05-26T07:44:39.914Z,101352.30
2019-05-26T07:47:07.771Z,101354.19
2019-05-26T07:49:34.827Z,101350.73
2019-05-26T07:52:03.728Z,101354.73
2019-05-26T07:54:30.683Z,101345.41
2019-05-26T07:56:57.698Z,101351.20
2019-05-26T07:59:24.650Z,101350.33
2019-05-26T08:01:51.607Z,101345.02
2019-05-26T08:04:18.740Z,101352.57
2019-05-26T08:06:45.710Z,101349.02
2019-05-26T08:09:12.693Z,101353.94
2019-05-26T08:11:39.677Z,101354.38
2019-05-26T08:14:06.899Z,101345.91
2019-05-26T08:16:33.997Z,101341.06
2019-05-26T08:19:01.147Z,101342.84
2019-05-26T08:21:28.195Z,101348.16
2019-05-26T08:23:56.243Z,101348.18
2019-05-26T08:26:23.576Z,101343.72
2019-05-26T08:28:52.446Z,101343.72
2019-05-26T08:31:19.531Z,101343.72
2019-05-26T08:33:46.573Z,101340.17
2019-05-26T08:36:13.541Z,101342.40
2019-05-26T08:38:40.533Z,101337.92
2019-05-26T08:41:07.659Z,101337.03
2019-05-26T08:43:34.638Z,101341.91
2019-05-26T08:46:01.604Z,101340.17
2019-05-26T08:48:28.604Z,101337.95
2019-05-26T08:50:55.574Z,101337.06
2019-05-26T08:53:22.644Z,101336.61
2019-05-26T08:55:49.645Z,101324.16
2019-05-26T08:58:16.602Z,101320.61
2019-05-26T09:00:43.597Z,101317.06
2019-05-26T09:03:10.575Z,101313.95
2019-05-26T09:05:37.535Z,101316.61
2019-05-26T09:08:07.952Z,101317.08
2019-05-26T09:10:33.493Z,101313.08
2019-05-26T09:13:01.615Z,101312.19
2019-05-26T09:15:28.985Z,101313.92
2019-05-26T09:17:55.982Z,101313.37
2019-05-26T09:20:23.283Z,101307.99
2019-05-26T09:22:50.239Z,101307.05
2019-05-26T09:25:17.231Z,101305.19
2019-05-26T09:27:44.340Z,101309.61
2019-05-26T09:30:12.123Z,101307.23
2019-05-26T09:32:39.063Z,101299.58
2019-05-26T09:35:07.088Z,101294.97
2019-05-26T09:37:34.069Z,101289.08
2019-05-26T09:40:01.032Z,101292.95
2019-05-26T09:42:28.014Z,101288.16
2019-05-26T09:44:55.079Z,101285.05
2019-05-26T09:47:22.159Z,101280.44
2019-05-26T09:49:58.431Z,101283.31
2019-05-26T09:52:26.495Z,101283.06
2019-05-26T09:54:53.498Z,101269.72
2019-05-26T09:57:20.497Z,101273.48
2019-05-26T09:59:47.449Z,101274.80
2019-05-26T10:02:31.062Z,101267.41
2019-05-26T10:04:58.134Z,101272.25
2019-05-26T10:07:25.103Z,101265.93
2019-05-26T10:09:52.108Z,101256.00
2019-05-26T10:12:19.110Z,101255.90
2019-05-26T10:14:47.862Z,101260.86
2019-05-26T10:17:15.097Z,101257.80
2019-05-26T10:19:42.074Z,101260.09
2019-05-26T10:22:10.894Z,101253.45
2019-05-26T10:24:37.910Z,101256.28
2019-05-26T10:27:05.323Z,101258.25
2019-05-26T10:29:32.324Z,101261.02
2019-05-26T10:31:59.506Z,101262.66
2019-05-26T10:34:26.484Z,101256.81
2019-05-26T10:36:53.449Z,101260.59
2019-05-26T10:39:20.466Z,101254.80
2019-05-26T10:41:48.639Z,101256.69
2019-05-26T10:44:15.673Z,101257.36
2019-05-26T10:46:43.758Z,101260.75
2019-05-26T10:49:10.810Z,101259.03
2019-05-26T10:51:38.607Z,101257.37
2019-05-26T10:54:05.585Z,101254.27
2019-05-26T10:56:32.556Z,101260.33
2019-05-26T10:58:59.575Z,101251.27
2019-05-26T11:01:26.670Z,101246.33
2019-05-26T11:03:53.645Z,101251.91
2019-05-26T11:06:20.791Z,101248.42
2019-05-26T11:08:47.772Z,101251.69
2019-05-26T11:11:14.728Z,101247.63
2019-05-26T11:13:41.781Z,101241.75
2019-05-26T11:16:08.851Z,101237.36
2019-05-26T11:18:35.833Z,101243.33
2019-05-26T11:21:02.830Z,101239.37
2019-05-26T11:23:29.856Z,101233.54
2019-05-26T11:25:56.810Z,101231.08
2019-05-26T11:28:23.788Z,101231.51
2019-05-26T11:30:51.012Z,101237.02
2019-05-26T11:33:18.071Z,101229.80
2019-05-26T11:35:45.100Z,101225.69
2019-05-26T11:38:12.080Z,101226.72
2019-05-26T11:40:39.079Z,101228.48
2019-05-26T11:43:16.224Z,101225.71
2019-05-26T11:45:35.081Z,101215.96
2019-05-26T11:48:02.117Z,101213.50
2019-05-26T11:50:31.081Z,101208.81
2019-05-26T11:52:58.211Z,101209.59
2019-05-26T11:55:27.783Z,101210.13
2019-05-26T11:57:54.190Z,101206.66
2019-05-26T12:00:21.427Z,101202.70
2019-05-26T12:02:48.407Z,101203.66
2019-05-26T12:05:17.697Z,101195.45
2019-05-26T12:07:44.669Z,101194.52
2019-05-26T12:10:14.465Z,101195.86
2019-05-26T12:12:41.919Z,101197.67
2019-05-26T12:15:10.923Z,101190.33
2019-05-26T12:17:38.811Z,101189.12
2019-05-26T12:20:06.288Z,101178.57
2019-05-26T12:22:33.397Z,101178.31
2019-05-26T12:25:00.465Z,101178.30
2019-05-26T12:27:27.586Z,101169.66
2019-05-26T12:29:54.613Z,101174.75
2019-05-26T12:32:21.605Z,101174.16
2019-05-26T12:34:48.612Z,101170.24
2019-05-26T12:37:15.726Z,101174.23
2019-05-26T12:40:01.224Z,101164.60
2019-05-26T12:42:28.283Z,101171.58
2019-05-26T12:44:55.240Z,101162.52
2019-05-26T12:47:22.189Z,101158.70
2019-05-26T12:49:49.226Z,101161.42
2019-05-26T12:52:16.179Z,101155.13
2019-05-26T12:54:43.170Z,101153.15
2019-05-26T12:57:10.179Z,101146.52
2019-05-26T12:59:37.263Z,101143.80
2019-05-26T13:02:04.472Z,101154.75
2019-05-26T13:04:34.891Z,101141.11
2019-05-26T13:07:01.863Z,101140.59
2019-05-26T13:09:28.944Z,101142.22
2019-05-26T13:11:55.973Z,101142.98
2019-05-26T13:14:22.919Z,101136.47
2019-05-26T13:16:49.917Z,101134.87
2019-05-26T13:19:17.080Z,101136.05
2019-05-26T13:21:44.086Z,101141.41
2019-05-26T13:24:11.056Z,101143.98
2019-05-26T13:26:38.031Z,101135.33
2019-05-26T13:29:05.027Z,101127.09
2019-05-26T13:31:33.061Z,101124.00
2019-05-26T13:34:00.150Z,101138.41
2019-05-26T13:36:27.134Z,101130.67
2019-05-26T13:38:54.138Z,101131.05
2019-05-26T13:41:21.290Z,101128.56
2019-05-26T13:43:48.261Z,101127.89
2019-05-26T13:46:15.262Z,101123.15
2019-05-26T13:48:42.250Z,101117.19
2019-05-26T13:51:09.270Z,101121.50
2019-05-26T13:53:36.296Z,101112.05
2019-05-26T13:56:03.252Z,101113.14
2019-05-26T13:58:30.238Z,101106.84
2019-05-26T14:00:57.253Z,101113.95
2019-05-26T14:03:24.486Z,101113.77
2019-05-26T14:05:51.665Z,101107.23
2019-05-26T14:08:18.656Z,101103.67
2019-05-26T14:10:45.742Z,101119.93
2019-05-26T14:13:12.917Z,101110.07
2019-05-26T14:15:39.891Z,101107.75
2019-05-26T14:18:07.228Z,101112.30
2019-05-26T14:20:39.108Z,101111.02
2019-05-26T14:23:07.565Z,101108.47
2019-05-26T14:25:35.065Z,101105.98
2019-05-26T14:28:02.072Z,101107.75
2019-05-26T14:30:29.412Z,101103.80
2019-05-26T14:32:57.479Z,101103.80
2019-05-26T14:35:24.482Z,101099.94
2019-05-26T14:37:51.719Z,101101.54
2019-05-26T14:40:19.089Z,101091.34
2019-05-26T14:42:46.063Z,101096.86
2019-05-26T14:45:13.188Z,101088.84
2019-05-26T14:47:40.150Z,101092.24
2019-05-26T14:50:08.837Z,101088.64
2019-05-26T14:52:37.252Z,101080.58
2019-05-26T14:57:15.098Z,101082.23
2019-05-26T14:59:42.129Z,101069.62
2019-05-26T15:02:09.238Z,101075.66
2019-05-26T15:04:36.242Z,101069.58
2019-05-26T15:07:03.196Z,101071.88
2019-05-26T15:09:30.341Z,101074.00
2019-05-26T15:11:57.379Z,101070.70
2019-05-26T15:14:24.384Z,101070.96
2019-05-26T15:16:51.381Z,101060.24
2019-05-26T15:19:18.513Z,101060.22
2019-05-26T15:21:45.522Z,101059.70
2019-05-26T15:24:12.533Z,101062.66
2019-05-26T15:26:39.564Z,101043.70
2019-05-26T15:29:06.579Z,101050.97
2019-05-26T15:31:33.594Z,101063.43
2019-05-26T15:34:00.721Z,101046.30
2019-05-26T15:36:27.770Z,101047.16
2019-05-26T15:38:55.835Z,101037.25
2019-05-26T15:41:22.835Z,101043.63
2019-05-26T15:43:49.945Z,101037.70
2019-05-26T15:46:25.072Z,101039.83
2019-05-26T15:48:47.508Z,101034.69
2019-05-26T15:51:14.642Z,101031.73
2019-05-26T15:53:41.647Z,101029.05
2019-05-26T15:56:08.731Z,101024.06
2019-05-26T15:58:35.766Z,101016.34
2019-05-26T16:01:03.035Z,101016.41
2019-05-26T16:03:30.036Z,101016.70
2019-05-26T16:05:57.099Z,101010.55
2019-05-26T16:08:24.240Z,101017.66
2019-05-26T16:10:51.314Z,101015.54
2019-05-26T16:13:18.342Z,100996.89
2019-05-26T16:15:47.118Z,101004.84
2019-05-26T16:18:14.117Z,101000.80
2019-05-26T16:20:41.058Z,100992.48
2019-05-26T16:23:09.047Z,100986.25
2019-05-26T16:25:36.162Z,100994.19
2019-05-26T16:28:03.445Z,100982.01
2019-05-26T16:30:30.435Z,100977.11
2019-05-26T16:32:57.430Z,100985.16
2019-05-26T16:35:24.412Z,100975.80
2019-05-26T16:37:51.403Z,100978.06
2019-05-26T16:40:19.496Z,100968.87
2019-05-26T16:42:46.465Z,100962.25
2019-05-26T16:45:13.456Z,100972.59
2019-05-26T16:47:40.476Z,100964.16
2019-05-26T16:50:07.832Z,100963.91
2019-05-26T16:52:34.888Z,100962.56
2019-05-26T16:55:01.867Z,100963.38
2019-05-26T16:57:28.872Z,100962.73
2019-05-26T16:59:55.870Z,100953.52
2019-05-26T17:02:24.749Z,100963.92
2019-05-26T17:04:51.740Z,100962.36
2019-05-26T17:07:18.877Z,100957.05
2019-05-26T17:09:45.896Z,100947.66
2019-05-26T17:12:12.874Z,100944.82
2019-05-26T17:14:39.952Z,100945.91
2019-05-26T17:17:14.565Z,100947.70
2019-05-26T17:19:35.895Z,100948.75
2019-05-26T17:22:03.105Z,100950.08
2019-05-26T17:24:32.169Z,100951.48
2019-05-26T17:26:59.655Z,100949.84
2019-05-26T17:29:26.777Z,100938.69
2019-05-26T17:31:53.757Z,100941.50
2019-05-26T17:34:20.893Z,100942.84
2019-05-26T17:36:47.871Z,100937.55
2019-05-26T17:39:16.665Z,100934.16
2019-05-26T17:41:43.671Z,100937.88
2019-05-26T17:44:10.797Z,100939.62
2019-05-26T17:46:37.832Z,100935.25
2019-05-26T17:49:04.995Z,100936.66
2019-05-26T17:51:32.110Z,100939.69
2019-05-26T17:54:01.017Z,100927.25
2019-05-26T17:56:28.021Z,100931.82
2019-05-26T17:58:55.019Z,100936.47
2019-05-26T18:01:22.015Z,100939.55
2019-05-26T18:03:49.021Z,100935.22
2019-05-26T18:06:16.061Z,100931.69
2019-05-26T18:08:43.045Z,100939.44
2019-05-26T18:11:10.099Z,100934.16
2019-05-26T18:13:37.101Z,100929.52
2019-05-26T18:16:04.127Z,100925.97
2019-05-26T18:18:31.201Z,100922.08
2019-05-26T18:20:59.401Z,100923.06
2019-05-26T18:23:26.393Z,100924.42
2019-05-26T18:25:53.494Z,100918.70
2019-05-26T18:28:20.534Z,100913.30
2019-05-26T18:30:47.509Z,100917.00
2019-05-26T18:33:14.583Z,100912.20
2019-05-26T18:35:41.616Z,100911.84
2019-05-26T18:38:08.631Z,100918.13
2019-05-26T18:40:41.635Z,100913.47
2019-05-26T18:43:08.762Z,100913.53
2019-05-26T18:45:35.746Z,100913.14
2019-05-26T18:48:03.979Z,100919.86
2019-05-26T18:50:31.109Z,100911.97
2019-05-26T18:52:58.513Z,100908.46
2019-05-26T18:55:25.804Z,100908.88
2019-05-26T18:57:52.816Z,100903.22
2019-05-26T19:00:20.060Z,100909.58
2019-05-26T19:02:47.211Z,100916.38
2019-05-26T19:05:14.956Z,100913.83
2019-05-26T19:07:42.002Z,100912.55
2019-05-26T19:10:09.642Z,100912.63
2019-05-26T19:12:36.678Z,100920.80
2019-05-26T19:15:04.303Z,100920.01
2019-05-26T19:17:31.324Z,100915.20
2019-05-26T19:20:12.885Z,100912.19
2019-05-26T19:22:27.387Z,100910.03
2019-05-26T19:24:54.448Z,100916.73
2019-05-26T19:27:22.740Z,100922.97
2019-05-26T19:29:51.530Z,100922.52
2019-05-26T19:32:18.702Z,100924.75
2019-05-26T19:34:45.745Z,100922.05
2019-05-26T19:37:12.959Z,100923.41
2019-05-26T19:39:40.000Z,100926.94
2019-05-26T19:42:07.103Z,100930.06
2019-05-26T19:44:34.227Z,100921.65
2019-05-26T19:47:01.217Z,100927.91
2019-05-26T19:49:28.226Z,100919.00
2019-05-26T19:51:56.833Z,100927.89
2019-05-26T19:54:23.892Z,100926.91
2019-05-26T19:56:50.906Z,100931.83
2019-05-26T19:59:18.236Z,100942.13
2019-05-26T20:01:45.384Z,100945.66
2019-05-26T20:04:12.543Z,100940.38
2019-05-26T20:06:39.736Z,100941.35
2019-05-26T20:09:08.292Z,100943.61
2019-05-26T20:11:35.321Z,100942.80
2019-05-26T20:14:02.705Z,100936.23
2019-05-26T20:16:30.821Z,100936.73
2019-05-26T20:18:58.094Z,100933.64
2019-05-26T20:21:25.239Z,100930.60
2019-05-26T20:24:10.999Z,100918.66
2019-05-26T20:26:38.246Z,100932.41
2019-05-26T20:29:05.255Z,100922.22
2019-05-26T20:31:32.256Z,100930.62
2019-05-26T20:34:01.438Z,100927.10
2019-05-26T20:36:29.560Z,100935.11
2019-05-26T20:38:57.708Z,100935.53
2019-05-26T20:41:24.789Z,100930.23
2019-05-26T20:43:52.704Z,100926.70
2019-05-26T20:46:19.804Z,100927.59
2019-05-26T20:48:46.796Z,100914.33
2019-05-26T20:51:13.780Z,100932.52
2019-05-26T20:53:41.009Z,100921.45
2019-05-26T20:56:08.032Z,100927.67
2019-05-26T20:58:35.218Z,100924.59
2019-05-26T21:01:02.224Z,100928.14
2019-05-26T21:03:29.371Z,100927.70
2019-05-26T21:05:56.398Z,100924.59
2019-05-26T21:08:23.409Z,100919.70
2019-05-26T21:10:50.453Z,100920.14
2019-05-26T21:13:18.737Z,100913.06
2019-05-26T21:15:46.926Z,100915.73
2019-05-26T21:18:13.967Z,100911.73
2019-05-26T21:20:41.504Z,100908.63
2019-05-26T21:23:08.549Z,100905.53
2019-05-26T21:25:35.578Z,100906.42
2019-05-26T21:28:02.567Z,100914.84
2019-05-26T21:30:29.606Z,100901.99
2019-05-26T21:32:57.224Z,100913.50
2019-05-26T21:35:25.953Z,100916.16
2019-05-26T21:37:52.949Z,100912.18
2019-05-26T21:40:20.110Z,100912.62
2019-05-26T21:42:47.124Z,100916.16
2019-05-26T21:45:14.514Z,100907.31
2019-05-26T21:47:41.520Z,100908.19
2019-05-26T21:50:09.477Z,100904.66
2019-05-26T21:52:36.687Z,100903.32
2019-05-26T21:55:04.352Z,100906.87
2019-05-26T21:57:31.356Z,100904.63
2019-05-26T21:59:58.389Z,100898.86
2019-05-26T22:02:25.375Z,100899.78
2019-05-26T22:04:52.353Z,100898.01
2019-05-26T22:07:19.472Z,100888.69
2019-05-26T22:09:46.529Z,100895.33
2019-05-26T22:12:13.608Z,100894.00
2019-05-26T22:14:40.637Z,100898.42
2019-05-26T22:17:07.705Z,100897.53
2019-05-26T22:19:34.725Z,100890.45
2019-05-26T22:22:01.930Z,100884.70
2019-05-26T22:24:29.007Z,100881.60
2019-05-26T22:26:56.020Z,100877.17
2019-05-26T22:29:23.135Z,100877.17
2019-05-26T22:31:50.132Z,100879.83
2019-05-26T22:34:17.156Z,100876.28
2019-05-26T22:36:47.670Z,100877.61
2019-05-26T22:39:14.815Z,100881.60
2019-05-26T22:41:41.966Z,100872.30
2019-05-26T22:44:08.967Z,100866.55
2019-05-26T22:46:35.969Z,100874.52
2019-05-26T22:49:02.994Z,100877.17
2019-05-26T22:51:30.007Z,100870.53
2019-05-26T22:53:58.025Z,100878.50
2019-05-26T22:56:25.057Z,100870.09
2019-05-26T22:58:52.305Z,100866.55
2019-05-26T23:01:19.359Z,100868.76
2019-05-26T23:03:46.381Z,100873.63
2019-05-26T23:06:13.537Z,100870.97
2019-05-26T23:08:40.774Z,100867.42
2019-05-26T23:11:07.771Z,100868.31
2019-05-26T23:13:34.839Z,100859.91
2019-05-26T23:16:01.845Z,100859.02
2019-05-26T23:18:28.861Z,100860.34
2019-05-26T23:20:55.878Z,100858.56
2019-05-26T23:23:23.017Z,100861.67
2019-05-26T23:25:50.049Z,100855.03
2019-05-26T23:28:17.190Z,100862.98
2019-05-26T23:30:44.665Z,100855.45
2019-05-26T23:33:13.430Z,100857.20
2019-05-26T23:35:40.545Z,100852.77
2019-05-26T23:38:07.529Z,100854.07
2019-05-26T23:40:34.525Z,100858.48
2019-05-26T23:43:01.974Z,100860.98
2019-05-26T23:45:29.053Z,100848.95
2019-05-26T23:47:56.180Z,100851.09
2019-05-26T23:50:23.259Z,100850.58
2019-05-26T23:52:50.260Z,100853.65
2019-05-26T23:55:17.305Z,100854.51
2019-05-26T23:57:44.395Z,100854.03
